Cottonwd Hgts, Utah
Current Conditions -  °F | °C
As of 1:53 AM on Thursday 23 Oct 2014 (Local Time) from KSLC Reporting Station
Few Clouds Few Clouds  
Wind Chill: 41°   Ceiling: Unl
Heat Index: 45°   Visibility: 10mi
Dew Point: 34°   Wind: 7mph
Humidity: 65%   Direction: 150°SSE
Pressure: 30.14"   Gusts: NA
Location:  40.615°N, 111.891°W
Report Text: KSLC 230753Z 15006KT 10SM FEW200 07/01 A3014 RMK AO2 SLP188 T00720011
Loading
Personal Weather Stations






























Interactive Weather Map New forecast layout! Learn more

10-Day Weather Forecast

Advertisements
Track Severe Weather on mobile